createdAt,value
2023-03-25T00:04:18.081Z,6.00
2023-03-25T00:09:20.865Z,5.13
2023-03-25T00:14:25.406Z,5.40
2023-03-25T00:19:28.620Z,5.80
2023-03-25T00:24:31.040Z,5.77
2023-03-25T00:29:33.397Z,5.10
2023-03-25T00:34:42.282Z,5.17
2023-03-25T00:39:46.029Z,3.95
2023-03-25T00:44:49.694Z,4.87
2023-03-25T00:49:52.303Z,5.27
2023-03-25T00:54:54.585Z,3.97
2023-03-25T00:59:56.950Z,3.97
2023-03-25T01:05:00.378Z,4.53
2023-03-25T01:10:04.534Z,3.63
2023-03-25T01:15:18.466Z,3.77
2023-03-25T01:20:22.911Z,4.57
2023-03-25T01:25:25.240Z,4.27
2023-03-25T01:30:27.683Z,4.63
2023-03-25T01:35:30.843Z,6.13
2023-03-25T01:40:33.161Z,2.97
2023-03-25T01:45:35.502Z,6.30
2023-03-25T01:50:40.908Z,3.80
2023-03-25T01:55:44.839Z,5.13
2023-03-25T02:00:48.039Z,4.23
2023-03-25T02:06:06.281Z,3.87
2023-03-25T02:11:10.473Z,7.17
2023-03-25T02:16:26.751Z,5.80
2023-03-25T02:21:57.034Z,4.00
2023-03-25T02:27:46.232Z,4.32
2023-03-25T02:33:14.494Z,6.07
2023-03-25T02:38:31.755Z,4.93
2023-03-25T02:43:40.821Z,4.37
2023-03-25T02:49:23.636Z,5.43
2023-03-25T02:59:33.563Z,4.60
2023-03-25T03:04:50.959Z,4.73
2023-03-25T03:10:21.324Z,6.10
2023-03-25T03:21:14.519Z,4.80
2023-03-25T03:26:53.622Z,4.40
2023-03-25T03:32:14.541Z,7.40
2023-03-25T03:37:20.059Z,6.43
2023-03-25T03:42:29.075Z,5.60
2023-03-25T03:47:37.365Z,5.43
2023-03-25T03:52:45.697Z,6.93
2023-03-25T03:58:00.289Z,3.53
2023-03-25T04:03:07.532Z,5.20
2023-03-25T04:08:33.428Z,5.40
2023-03-25T04:13:40.013Z,4.17
2023-03-25T04:18:46.414Z,4.37
2023-03-25T04:23:50.205Z,6.00
2023-03-25T04:28:52.551Z,5.43
2023-03-25T04:33:54.890Z,3.70
2023-03-25T04:38:57.367Z,3.60
2023-03-25T04:44:00.322Z,4.73
2023-03-25T04:49:14.509Z,7.67
2023-03-25T04:54:18.297Z,4.93
2023-03-25T04:59:21.630Z,6.67
2023-03-25T05:04:25.104Z,4.47
2023-03-25T05:09:27.611Z,5.03
2023-03-25T05:14:30.070Z,5.63
2023-03-25T05:19:35.605Z,5.77
2023-03-25T05:24:38.036Z,6.30
2023-03-25T05:29:40.438Z,5.20
2023-03-25T05:34:43.007Z,5.53
2023-03-25T05:39:46.488Z,5.93
2023-03-25T05:44:53.092Z,6.17
2023-03-25T05:49:55.432Z,5.27
2023-03-25T05:54:57.811Z,4.17
2023-03-25T06:00:00.274Z,6.27
2023-03-25T06:05:02.829Z,6.20
2023-03-25T06:10:06.520Z,6.27
2023-03-25T06:15:10.122Z,6.63
2023-03-25T06:20:14.457Z,6.37
2023-03-25T06:25:35.221Z,9.37
2023-03-25T06:30:37.600Z,5.70
2023-03-25T06:35:43.925Z,5.47
2023-03-25T06:40:48.276Z,8.13
2023-03-25T06:45:52.257Z,7.10
2023-03-25T06:51:13.652Z,10.73
2023-03-25T06:56:18.460Z,7.63
2023-03-25T07:01:21.126Z,8.80
2023-03-25T07:06:24.333Z,7.47
2023-03-25T07:11:29.597Z,10.63
2023-03-25T07:16:31.991Z,7.27
2023-03-25T07:21:34.366Z,10.43
2023-03-25T07:26:36.922Z,8.77
2023-03-25T07:31:40.697Z,9.37
2023-03-25T07:36:46.256Z,8.70
2023-03-25T07:41:48.810Z,7.97
2023-03-25T07:47:11.392Z,11.07
2023-03-25T07:52:13.785Z,11.13
2023-03-25T07:57:16.415Z,10.90
2023-03-25T08:02:19.238Z,8.57
2023-03-25T08:07:21.935Z,9.57
2023-03-25T08:12:24.237Z,9.10
2023-03-25T08:17:26.788Z,14.57
2023-03-25T08:22:29.207Z,9.60
2023-03-25T08:27:44.141Z,11.83
2023-03-25T08:32:46.619Z,12.07
2023-03-25T08:37:49.268Z,13.13
2023-03-25T08:42:51.795Z,13.10
2023-03-25T08:47:54.465Z,11.57
2023-03-25T08:52:59.286Z,12.53
2023-03-25T08:58:06.625Z,11.77
2023-03-25T09:03:10.122Z,11.27
2023-03-25T09:08:12.894Z,13.90
2023-03-25T09:13:15.955Z,10.97
2023-03-25T09:18:18.727Z,13.27
2023-03-25T09:23:21.067Z,13.03
2023-03-25T09:28:26.368Z,11.70
2023-03-25T09:33:29.245Z,14.87
2023-03-25T09:38:31.609Z,15.17
2023-03-25T09:44:06.387Z,15.33
2023-03-25T09:49:16.971Z,13.17
2023-03-25T09:54:23.919Z,13.53
2023-03-25T10:00:01.052Z,17.17
2023-03-25T10:05:12.411Z,12.97
2023-03-25T10:10:30.727Z,16.43
2023-03-25T10:15:59.044Z,14.07
2023-03-25T10:21:09.820Z,13.90
2023-03-25T10:26:25.485Z,15.00
2023-03-25T10:31:46.441Z,13.20
2023-03-25T10:37:08.158Z,14.80
2023-03-25T10:43:00.524Z,16.03
2023-03-25T10:48:11.776Z,19.13
2023-03-25T10:53:25.792Z,15.73
2023-03-25T10:58:28.332Z,16.37
2023-03-25T11:03:34.755Z,18.53
2023-03-25T11:08:37.422Z,16.77
2023-03-25T11:13:41.758Z,19.37
2023-03-25T11:18:44.811Z,33.97
2023-03-25T11:23:49.031Z,22.03
2023-03-25T11:28:54.971Z,17.13
2023-03-25T11:34:09.399Z,24.37
2023-03-25T11:39:19.186Z,26.20
2023-03-25T11:44:31.195Z,20.27
2023-03-25T11:49:39.048Z,17.40
2023-03-25T11:54:42.460Z,17.20
2023-03-25T11:59:46.920Z,21.60
2023-03-25T12:05:02.158Z,17.20
2023-03-25T12:10:07.836Z,17.57
2023-03-25T12:15:11.801Z,17.47
2023-03-25T12:20:32.633Z,15.83
2023-03-25T12:26:11.181Z,17.13
2023-03-25T12:31:38.607Z,17.33
2023-03-25T12:37:19.843Z,16.27
2023-03-25T12:43:06.030Z,16.83
2023-03-25T12:48:40.679Z,19.52
2023-03-25T12:53:54.848Z,16.37
2023-03-25T12:59:00.387Z,16.97
2023-03-25T13:04:09.219Z,16.97
2023-03-25T13:09:25.802Z,17.42
2023-03-25T13:14:51.053Z,17.20
2023-03-25T13:19:57.017Z,16.20
2023-03-25T13:25:02.114Z,18.50
2023-03-25T13:30:06.127Z,19.03
2023-03-25T13:35:18.947Z,14.47
2023-03-25T13:40:24.684Z,15.60
2023-03-25T13:45:30.724Z,15.27
2023-03-25T13:50:33.594Z,15.77
2023-03-25T13:55:40.963Z,17.33
2023-03-25T14:01:13.521Z,14.30
2023-03-25T14:06:26.560Z,16.03
2023-03-25T14:11:52.659Z,16.47
2023-03-25T14:16:58.746Z,13.33
2023-03-25T14:22:27.636Z,12.90
2023-03-25T14:27:35.027Z,15.83
2023-03-25T14:32:41.166Z,17.17
2023-03-25T14:37:44.145Z,15.53
2023-03-25T14:43:00.153Z,14.23
2023-03-25T14:48:22.949Z,15.77
2023-03-25T14:53:28.872Z,14.07
2023-03-25T14:58:32.033Z,15.07
2023-03-25T15:03:46.111Z,14.33
2023-03-25T15:08:57.201Z,16.10
2023-03-25T15:14:05.204Z,13.27
2023-03-25T15:19:11.609Z,15.80
2023-03-25T15:24:17.245Z,22.53
2023-03-25T15:29:40.063Z,20.33
2023-03-25T15:35:10.647Z,14.03
2023-03-25T15:40:34.953Z,13.40
2023-03-25T15:45:43.393Z,13.30
2023-03-25T15:51:06.571Z,14.37
2023-03-25T15:56:34.614Z,17.33
2023-03-25T16:01:39.676Z,12.83
2023-03-25T16:06:44.849Z,13.83
2023-03-25T16:11:47.310Z,12.00
2023-03-25T16:16:54.796Z,12.17
2023-03-25T16:22:02.162Z,11.87
2023-03-25T16:27:12.176Z,12.03
2023-03-25T16:32:23.387Z,12.00
2023-03-25T16:37:26.295Z,11.20
2023-03-25T16:42:35.795Z,15.57
2023-03-25T16:47:38.338Z,13.15
2023-03-25T16:52:40.928Z,14.03
2023-03-25T16:57:43.281Z,10.40
2023-03-25T17:02:48.775Z,14.37
2023-03-25T17:07:59.535Z,12.83
2023-03-25T17:13:05.791Z,14.13
2023-03-25T17:18:14.608Z,12.67
2023-03-25T17:23:16.873Z,13.13
2023-03-25T17:28:40.454Z,15.40
2023-03-25T17:33:51.739Z,13.93
2023-03-25T17:38:54.404Z,15.27
2023-03-25T17:43:58.430Z,16.80
2023-03-25T17:49:01.016Z,15.83
2023-03-25T17:54:03.553Z,15.80
2023-03-25T17:59:10.808Z,14.47
2023-03-25T18:04:15.272Z,15.70
2023-03-25T18:09:25.336Z,13.77
2023-03-25T18:14:28.233Z,15.33
2023-03-25T18:19:34.474Z,14.33
2023-03-25T18:24:38.258Z,14.37
2023-03-25T18:29:40.872Z,13.57
2023-03-25T18:34:43.452Z,12.87
2023-03-25T18:39:46.216Z,12.63
2023-03-25T18:44:50.626Z,13.57
2023-03-25T18:50:12.101Z,12.87
2023-03-25T18:55:15.484Z,13.90
2023-03-25T19:00:29.344Z,18.53
2023-03-25T19:05:33.881Z,13.77
2023-03-25T19:10:36.449Z,13.23
2023-03-25T19:15:39.370Z,15.50
2023-03-25T19:20:44.962Z,14.00
2023-03-25T19:25:50.057Z,15.70
2023-03-25T19:30:54.928Z,15.53
2023-03-25T19:36:00.164Z,14.20
2023-03-25T19:41:08.499Z,17.30
2023-03-25T19:46:11.137Z,14.63
2023-03-25T19:51:17.246Z,15.07
2023-03-25T19:56:28.193Z,15.00
2023-03-25T20:01:31.396Z,17.77
2023-03-25T20:06:34.042Z,16.47
2023-03-25T20:11:36.387Z,16.10
2023-03-25T20:16:38.966Z,15.97
2023-03-25T20:21:41.622Z,18.97
2023-03-25T20:26:44.157Z,16.30
2023-03-25T20:31:47.830Z,14.13
2023-03-25T20:36:50.365Z,15.67
2023-03-25T20:41:52.693Z,13.50
2023-03-25T20:46:55.143Z,15.47
2023-03-25T20:51:59.781Z,17.20
2023-03-25T20:57:02.274Z,23.43
2023-03-25T21:02:10.702Z,26.37
2023-03-25T21:07:22.836Z,24.95
2023-03-25T21:12:36.454Z,18.90
2023-03-25T21:17:45.570Z,32.53
2023-03-25T21:22:48.045Z,22.47
2023-03-25T21:27:51.666Z,22.07
2023-03-25T21:32:54.462Z,20.93
2023-03-25T21:37:56.858Z,45.97
2023-03-25T21:42:59.241Z,41.43
2023-03-25T21:48:05.483Z,62.20
2023-03-25T21:53:13.570Z,22.47
2023-03-25T21:58:16.701Z,23.30
2023-03-25T22:03:19.192Z,42.63
2023-03-25T22:08:21.576Z,54.03
2023-03-25T22:13:23.862Z,53.80
2023-03-25T22:18:27.007Z,34.57
2023-03-25T22:23:29.301Z,35.77
2023-03-25T22:28:31.686Z,32.27
2023-03-25T22:33:36.523Z,17.70
2023-03-25T22:38:48.486Z,18.30
2023-03-25T22:43:50.841Z,69.03
2023-03-25T22:48:53.113Z,17.83
2023-03-25T22:53:55.695Z,54.40
2023-03-25T22:58:58.089Z,48.77
2023-03-25T23:04:00.501Z,65.77
2023-03-25T23:09:05.129Z,33.97
2023-03-25T23:14:13.486Z,48.53
2023-03-25T23:19:15.824Z,19.00
2023-03-25T23:24:18.198Z,10.77
2023-03-25T23:29:20.827Z,17.13
2023-03-25T23:34:23.081Z,10.67
2023-03-25T23:39:28.114Z,11.17
2023-03-25T23:44:30.450Z,11.70
2023-03-25T23:49:34.211Z,10.90
2023-03-25T23:54:36.520Z,14.47
2023-03-25T23:59:44.609Z,10.43
